Blaine, Minnesota
Current Conditions -  °F | °C
As of 10:45 AM on Saturday 22 Nov 2014 (Local Time) from KANE Reporting Station
Haze Haze  
Wind Chill: 30°   Ceiling: 600
Heat Index: 37°   Visibility: 2.5mi
Dew Point: 36°   Wind: 10mph
Humidity: 93%   Direction: 200°SSW
Pressure: 29.73"   Gusts: NA
Location:  45.17°N, 93.21°W
Report Text: KANE 221645Z 20009KT 2 1/2SM BR OVC006 03/02 A2973
Loading
Personal Weather Stations






























Interactive Weather Map New forecast layout! Learn more

10-Day Weather Forecast

Advertisements
Track Severe Weather on mobile